Time;durP1;ratioP1;P1;durP2;ratioP2;P2;SDS_P1;SDS_P2;PMS_P1;PMS_P2;Temp;Humidity;BMP_temperature;BMP_pressure;BME280_temperature;BME280_humidity;BME280_pressure;Samples;Min_cycle;Max_cycle;Signal;HPM_P1;HPM_P2
2021/11/06 00:02:34;;;;;;;6.53;3.47;;;;;;;;;;10340206;28;20026;-82
2021/11/06 00:07:34;;;;;;;3.38;3.08;;;;;;;;;;10340862;28;20448;-82
2021/11/06 00:12:35;;;;;;;4.95;3.03;;;;;;;;;;10341302;28;20059;-81
2021/11/06 00:17:36;;;;;;;9.93;4.68;;;;;;;;;;10355306;28;20371;-81
2021/11/06 00:22:36;;;;;;;5.78;2.60;;;;;;;;;;10340111;28;20045;-81
2021/11/06 00:27:37;;;;;;;8.82;4.38;;;;;;;;;;10340915;28;20109;-81
2021/11/06 00:32:37;;;;;;;8.75;3.80;;;;;;;;;;10355898;28;20053;-81
2021/11/06 00:37:38;;;;;;;7.47;5.20;;;;;;;;;;10340039;28;20027;-82
2021/11/06 00:42:38;;;;;;;5.45;3.90;;;;;;;;;;10338871;28;20088;-81
2021/11/06 00:47:38;;;;;;;11.40;5.72;;;;;;;;;;10354836;28;20113;-81
2021/11/06 00:52:39;;;;;;;10.77;4.35;;;;;;;;;;10340041;28;20042;-81
2021/11/06 00:57:39;;;;;;;7.72;5.85;;;;;;;;;;10339237;28;20486;-81
2021/11/06 01:02:39;;;;;;;7.90;4.35;;;;;;;;;;10338542;28;20030;-80
2021/11/06 01:07:40;;;;;;;10.68;5.28;;;;;;;;;;10339218;28;20042;-81
2021/11/06 01:12:40;;;;;;;15.02;4.90;;;;;;;;;;10338406;28;20161;-81
2021/11/06 01:17:41;;;;;;;15.20;5.85;;;;;;;;;;10337981;28;20047;-81
2021/11/06 01:22:42;;;;;;;25.58;6.35;;;;;;;;;;10337768;28;20023;-81
2021/11/06 01:27:42;;;;;;;5.70;5.18;;;;;;;;;;10338102;28;20057;-81
2021/11/06 01:32:44;;;;;;;7.68;5.10;;;;;;;;;;10337479;28;20042;-81
2021/11/06 01:37:44;;;;;;;15.15;4.90;;;;;;;;;;10352063;28;20439;-81
2021/11/06 01:42:45;;;;;;;9.65;5.88;;;;;;;;;;10337999;28;20030;-81
2021/11/06 01:47:45;;;;;;;6.30;5.03;;;;;;;;;;10335755;28;20044;-81
2021/11/06 01:52:46;;;;;;;13.82;6.68;;;;;;;;;;10337805;28;20104;-81
2021/11/06 01:57:46;;;;;;;8.95;5.97;;;;;;;;;;10353333;28;20030;-81
2021/11/06 02:02:46;;;;;;;9.13;6.53;;;;;;;;;;10352415;28;20029;-81
2021/11/06 02:07:46;;;;;;;17.70;7.50;;;;;;;;;;10338391;28;20276;-81
2021/11/06 02:12:47;;;;;;;18.25;7.40;;;;;;;;;;10363349;28;20050;-81
2021/11/06 02:17:49;;;;;;;13.35;8.07;;;;;;;;;;10385171;28;20049;-81
2021/11/06 02:22:49;;;;;;;13.68;6.70;;;;;;;;;;10360733;28;20101;-81
2021/11/06 02:27:49;;;;;;;11.10;7.50;;;;;;;;;;10349726;28;20041;-82
2021/11/06 02:32:50;;;;;;;7.57;6.53;;;;;;;;;;10358948;28;20037;-80
2021/11/06 02:37:51;;;;;;;11.27;7.32;;;;;;;;;;10333426;28;20463;-82
2021/11/06 02:42:51;;;;;;;16.63;8.20;;;;;;;;;;10336114;28;20030;-82
2021/11/06 02:47:51;;;;;;;8.60;7.65;;;;;;;;;;10334981;28;20415;-82
2021/11/06 02:52:51;;;;;;;10.93;7.40;;;;;;;;;;10334728;28;20045;-81
2021/11/06 02:57:52;;;;;;;14.80;9.20;;;;;;;;;;10350088;28;20483;-82
2021/11/06 03:02:52;;;;;;;13.65;9.55;;;;;;;;;;10349695;28;20026;-81
2021/11/06 03:07:53;;;;;;;12.35;9.68;;;;;;;;;;10334311;28;20268;-82
2021/11/06 03:12:53;;;;;;;16.45;9.10;;;;;;;;;;10334094;28;20082;-81
2021/11/06 03:17:53;;;;;;;13.48;9.98;;;;;;;;;;10332996;28;20117;-82
2021/11/06 03:22:58;;;;;;;14.70;11.27;;;;;;;;;;10335206;28;20030;-82
2021/11/06 03:27:58;;;;;;;16.48;10.40;;;;;;;;;;10334342;28;20030;-82
2021/11/06 03:32:58;;;;;;;25.88;10.70;;;;;;;;;;10335133;28;20034;-82
2021/11/06 03:37:58;;;;;;;24.98;13.05;;;;;;;;;;10336463;28;20476;-82
2021/11/06 03:42:58;;;;;;;14.80;11.00;;;;;;;;;;10342192;28;20027;-83
2021/11/06 03:47:59;;;;;;;15.15;11.32;;;;;;;;;;10342255;28;20037;-83
2021/11/06 03:52:59;;;;;;;20.05;13.80;;;;;;;;;;10341775;28;20042;-82
2021/11/06 03:57:59;;;;;;;22.35;11.38;;;;;;;;;;10341185;28;20349;-83
2021/11/06 04:02:59;;;;;;;22.08;12.38;;;;;;;;;;10341231;28;20030;-82
2021/11/06 04:08:00;;;;;;;14.27;11.95;;;;;;;;;;10339844;28;20113;-82
2021/11/06 04:13:00;;;;;;;18.08;11.20;;;;;;;;;;10341229;28;20073;-82
2021/11/06 04:18:00;;;;;;;22.67;14.70;;;;;;;;;;10341481;28;20034;-82
2021/11/06 04:23:01;;;;;;;21.23;12.63;;;;;;;;;;10339032;28;20022;-82
2021/11/06 04:28:01;;;;;;;20.65;13.68;;;;;;;;;;10355575;28;20037;-82
2021/11/06 04:33:01;;;;;;;19.85;12.18;;;;;;;;;;10354910;28;20184;-82
2021/11/06 04:38:01;;;;;;;35.83;13.40;;;;;;;;;;10339116;28;20041;-82
2021/11/06 04:43:02;;;;;;;24.63;13.07;;;;;;;;;;10339325;28;20105;-82
2021/11/06 04:48:02;;;;;;;18.00;11.77;;;;;;;;;;10353626;28;20027;-82
2021/11/06 04:53:02;;;;;;;18.90;12.07;;;;;;;;;;10354055;28;20777;-82
2021/11/06 04:58:03;;;;;;;22.80;12.20;;;;;;;;;;10338802;28;20295;-82
2021/11/06 05:03:03;;;;;;;33.13;13.00;;;;;;;;;;10353677;28;20456;-82
2021/11/06 05:08:03;;;;;;;14.18;10.75;;;;;;;;;;10338374;28;20617;-82
2021/11/06 05:13:03;;;;;;;29.67;15.10;;;;;;;;;;10338368;28;20046;-82
2021/11/06 05:18:04;;;;;;;13.13;11.03;;;;;;;;;;10353230;28;20256;-82
2021/11/06 05:23:04;;;;;;;19.42;14.00;;;;;;;;;;10337837;28;20319;-82
2021/11/06 05:28:04;;;;;;;14.52;11.57;;;;;;;;;;10337843;28;20531;-82
2021/11/06 05:33:05;;;;;;;20.30;10.98;;;;;;;;;;10337883;28;20034;-82
2021/11/06 05:38:05;;;;;;;27.80;13.52;;;;;;;;;;10337173;28;20077;-82
2021/11/06 05:43:05;;;;;;;19.25;13.48;;;;;;;;;;10337667;28;20452;-81
2021/11/06 05:48:06;;;;;;;24.83;13.13;;;;;;;;;;10337512;28;20025;-82
2021/11/06 05:53:06;;;;;;;17.70;12.88;;;;;;;;;;10351802;28;20396;-82
2021/11/06 05:58:07;;;;;;;22.95;12.18;;;;;;;;;;10336114;28;20027;-82
2021/11/06 06:03:07;;;;;;;14.88;13.38;;;;;;;;;;10334238;28;20053;-82
2021/11/06 06:08:08;;;;;;;15.98;11.65;;;;;;;;;;10334984;28;20028;-82
2021/11/06 06:13:08;;;;;;;25.38;13.45;;;;;;;;;;10335824;28;20108;-82
2021/11/06 06:18:08;;;;;;;19.40;12.38;;;;;;;;;;10335775;28;20034;-82
2021/11/06 06:23:08;;;;;;;23.65;12.68;;;;;;;;;;10335782;28;20105;-82
2021/11/06 06:28:08;;;;;;;20.42;13.38;;;;;;;;;;10335819;28;20470;-81
2021/11/06 06:33:09;;;;;;;26.67;12.82;;;;;;;;;;10335883;28;20070;-82
2021/11/06 06:38:09;;;;;;;18.25;13.15;;;;;;;;;;10335236;28;20049;-81
2021/11/06 06:43:09;;;;;;;16.20;12.07;;;;;;;;;;10334202;28;20395;-81
2021/11/06 06:48:09;;;;;;;18.17;13.45;;;;;;;;;;10335042;28;20042;-81
2021/11/06 06:53:10;;;;;;;16.48;12.75;;;;;;;;;;10334549;28;20471;-82
2021/11/06 06:58:10;;;;;;;16.10;11.13;;;;;;;;;;10334602;28;20114;-82
2021/11/06 07:03:11;;;;;;;21.30;14.90;;;;;;;;;;10349133;28;20416;-82
2021/11/06 07:08:11;;;;;;;15.07;11.02;;;;;;;;;;10350032;28;20089;-82
2021/11/06 07:13:16;;;;;;;14.00;9.93;;;;;;;;;;10339383;28;20399;-81
2021/11/06 07:18:16;;;;;;;15.65;11.23;;;;;;;;;;10343782;28;20038;-81
2021/11/06 07:23:17;;;;;;;17.58;10.68;;;;;;;;;;10342666;28;20436;-81
2021/11/06 07:28:17;;;;;;;19.50;11.35;;;;;;;;;;10342955;28;20038;-81
2021/11/06 07:33:17;;;;;;;20.77;10.32;;;;;;;;;;10341473;28;20030;-81
2021/11/06 07:38:17;;;;;;;13.15;10.38;;;;;;;;;;10342529;28;20033;-82
2021/11/06 07:43:17;;;;;;;12.13;10.50;;;;;;;;;;10342216;28;20022;-81
2021/11/06 07:48:18;;;;;;;11.63;8.52;;;;;;;;;;10340987;28;20033;-80
2021/11/06 07:53:18;;;;;;;9.38;8.30;;;;;;;;;;10341081;28;20474;-81
2021/11/06 07:58:19;;;;;;;13.45;9.02;;;;;;;;;;10356846;28;20472;-81
2021/11/06 08:03:19;;;;;;;9.55;7.10;;;;;;;;;;10340515;28;20029;-82
2021/11/06 08:08:19;;;;;;;17.45;7.93;;;;;;;;;;10340862;28;20060;-84
2021/11/06 08:13:19;;;;;;;9.80;7.05;;;;;;;;;;10340948;28;20050;-82
2021/11/06 08:18:19;;;;;;;10.10;7.32;;;;;;;;;;10340004;28;20026;-82
2021/11/06 08:23:20;;;;;;;8.45;6.35;;;;;;;;;;10339580;28;20027;-81
2021/11/06 08:28:21;;;;;;;7.57;4.97;;;;;;;;;;10355601;28;20036;-84
2021/11/06 08:33:21;;;;;;;8.65;5.60;;;;;;;;;;10341480;28;20026;-83
2021/11/06 08:38:21;;;;;;;13.82;5.47;;;;;;;;;;10294736;28;20053;-84
2021/11/06 08:43:23;;;;;;;9.85;5.45;;;;;;;;;;10340465;28;20014;-84
2021/11/06 08:48:23;;;;;;;5.72;4.32;;;;;;;;;;10340634;28;20030;-84
2021/11/06 08:53:23;;;;;;;7.55;6.03;;;;;;;;;;10342196;28;20030;-82
2021/11/06 08:58:23;;;;;;;10.90;5.03;;;;;;;;;;10346228;28;20030;-82
2021/11/06 09:03:24;;;;;;;8.25;4.85;;;;;;;;;;10380466;28;20040;-83
2021/11/06 09:08:25;;;;;;;9.05;4.47;;;;;;;;;;10385984;28;20022;-82
2021/11/06 09:13:25;;;;;;;8.63;6.07;;;;;;;;;;10370195;28;20057;-83
2021/11/06 09:18:26;;;;;;;5.83;4.90;;;;;;;;;;10357420;28;20029;-82
2021/11/06 09:23:27;;;;;;;10.30;6.30;;;;;;;;;;10338706;28;20271;-83
2021/11/06 09:28:28;;;;;;;5.43;4.82;;;;;;;;;;10337112;28;20030;-83
2021/11/06 09:33:28;;;;;;;15.43;6.53;;;;;;;;;;10338030;28;20452;-83
2021/11/06 09:38:28;;;;;;;9.32;5.07;;;;;;;;;;10351337;28;20480;-83
2021/11/06 09:43:28;;;;;;;5.28;4.78;;;;;;;;;;10337374;28;20053;-83
2021/11/06 09:48:29;;;;;;;5.93;4.57;;;;;;;;;;10338266;28;20038;-83
2021/11/06 09:53:30;;;;;;;10.27;4.80;;;;;;;;;;10335623;28;20400;-83
2021/11/06 09:58:30;;;;;;;11.00;5.18;;;;;;;;;;10335450;28;20022;-83
2021/11/06 10:03:30;;;;;;;4.93;4.43;;;;;;;;;;10336429;28;20037;-83
2021/11/06 10:08:35;;;;;;;8.20;5.35;;;;;;;;;;10336513;28;20389;-83
2021/11/06 10:13:51;;;;;;;7.35;5.35;;;;;;;;;;10351488;28;20383;-84
2021/11/06 10:18:51;;;;;;;4.80;4.18;;;;;;;;;;10336555;28;20026;-83
2021/11/06 10:23:51;;;;;;;4.90;4.50;;;;;;;;;;10352154;28;20080;-81
2021/11/06 10:29:10;;;;;;;6.28;5.68;;;;;;;;;;10335513;28;20283;-82
2021/11/06 10:34:11;;;;;;;7.45;5.75;;;;;;;;;;10335605;28;20039;-84
2021/11/06 10:39:11;;;;;;;7.13;4.85;;;;;;;;;;10349744;28;20109;-83
2021/11/06 10:44:12;;;;;;;5.10;4.03;;;;;;;;;;10335050;28;20026;-82
2021/11/06 10:49:31;;;;;;;8.57;5.00;;;;;;;;;;10334561;28;20058;-83
2021/11/06 10:54:31;;;;;;;6.05;4.85;;;;;;;;;;10334062;28;20129;-81
2021/11/06 10:59:32;;;;;;;3.85;3.47;;;;;;;;;;10349456;28;20483;-82
2021/11/06 11:04:36;;;;;;;5.13;4.18;;;;;;;;;;10349430;28;20026;-80
2021/11/06 11:09:37;;;;;;;8.85;4.70;;;;;;;;;;10334693;28;20026;-80
2021/11/06 11:14:38;;;;;;;4.65;4.20;;;;;;;;;;10334626;28;20050;-81
2021/11/06 11:19:40;;;;;;;6.90;4.53;;;;;;;;;;10333876;28;20026;-81
2021/11/06 11:24:41;;;;;;;14.25;4.65;;;;;;;;;;10348690;28;20028;-81
2021/11/06 11:29:42;;;;;;;6.63;4.15;;;;;;;;;;10348313;28;20093;-81
2021/11/06 11:34:45;;;;;;;12.13;4.43;;;;;;;;;;10349615;28;20124;-81
2021/11/06 11:39:46;;;;;;;10.00;4.88;;;;;;;;;;10333509;28;20026;-81
2021/11/06 11:44:55;;;;;;;7.70;4.63;;;;;;;;;;10333688;28;20113;-80
2021/11/06 11:49:57;;;;;;;13.13;5.47;;;;;;;;;;10348941;28;20030;-81
2021/11/06 11:55:08;;;;;;;9.88;4.70;;;;;;;;;;10348527;28;20434;-81
2021/11/06 12:00:17;;;;;;;6.57;5.25;;;;;;;;;;10354353;28;20345;-80
2021/11/06 12:05:24;;;;;;;12.13;5.78;;;;;;;;;;10340378;28;20053;-81
2021/11/06 12:10:25;;;;;;;16.33;5.50;;;;;;;;;;10340132;28;20391;-81
2021/11/06 12:15:43;;;;;;;8.43;3.50;;;;;;;;;;10341461;28;20058;-82
2021/11/06 12:20:44;;;;;;;15.23;4.95;;;;;;;;;;10339206;28;20026;-82
2021/11/06 12:25:44;;;;;;;9.45;5.68;;;;;;;;;;10354432;28;20034;-81
2021/11/06 12:30:46;;;;;;;9.55;5.18;;;;;;;;;;10355090;28;20049;-81
2021/11/06 12:35:46;;;;;;;13.40;6.03;;;;;;;;;;10338634;28;20040;-80
2021/11/06 12:40:51;;;;;;;8.02;4.88;;;;;;;;;;10339699;28;20118;-80
2021/11/06 12:45:53;;;;;;;12.82;6.05;;;;;;;;;;10353255;28;20101;-80
2021/11/06 12:51:02;;;;;;;10.43;5.15;;;;;;;;;;10339019;28;20110;-81
2021/11/06 12:56:06;;;;;;;6.72;5.30;;;;;;;;;;10354119;28;20031;-82
2021/11/06 13:01:23;;;;;;;7.32;4.97;;;;;;;;;;10338758;28;20030;-81
2021/11/06 13:06:31;;;;;;;6.05;4.82;;;;;;;;;;10353308;28;20116;-80
2021/11/06 13:11:50;;;;;;;5.57;4.03;;;;;;;;;;10353321;28;20050;-81
2021/11/06 13:16:57;;;;;;;15.55;3.78;;;;;;;;;;10338300;28;20026;-78
2021/11/06 13:21:57;;;;;;;5.82;4.43;;;;;;;;;;10336651;28;20022;-79
2021/11/06 13:26:58;;;;;;;4.70;3.35;;;;;;;;;;10353250;28;20542;-81
2021/11/06 13:32:02;;;;;;;3.55;3.33;;;;;;;;;;10352954;28;20041;-80
2021/11/06 13:37:02;;;;;;;19.63;5.32;;;;;;;;;;10335918;28;20491;-80
2021/11/06 13:42:03;;;;;;;4.90;2.87;;;;;;;;;;10337572;28;20033;-81
2021/11/06 13:47:04;;;;;;;7.53;3.80;;;;;;;;;;10351869;28;20658;-81
2021/11/06 13:52:05;;;;;;;9.27;3.67;;;;;;;;;;10351423;28;20327;-80
2021/11/06 13:57:09;;;;;;;4.63;3.70;;;;;;;;;;10352735;28;20022;-82
2021/11/06 14:02:11;;;;;;;3.80;2.42;;;;;;;;;;10353111;28;20026;-84
2021/11/06 14:07:24;;;;;;;5.82;3.88;;;;;;;;;;10335770;28;20034;-81
2021/11/06 14:12:43;;;;;;;9.40;4.00;;;;;;;;;;10339428;28;20057;-83
2021/11/06 14:17:47;;;;;;;11.45;2.97;;;;;;;;;;10335287;28;20034;-82
2021/11/06 14:22:48;;;;;;;13.85;4.75;;;;;;;;;;10351924;28;20447;-80
2021/11/06 14:28:05;;;;;;;5.18;3.13;;;;;;;;;;10350903;28;20113;-81
2021/11/06 14:33:05;;;;;;;11.63;4.23;;;;;;;;;;10335391;28;20073;-85
2021/11/06 14:38:06;;;;;;;6.50;3.53;;;;;;;;;;10335550;28;20658;-81
2021/11/06 14:43:06;;;;;;;4.55;3.78;;;;;;;;;;10350571;28;20088;-83
2021/11/06 14:48:08;;;;;;;8.75;4.13;;;;;;;;;;10350012;28;20027;-83
2021/11/06 14:53:09;;;;;;;3.97;3.40;;;;;;;;;;10349802;28;20426;-83
2021/11/06 14:58:11;;;;;;;12.35;3.45;;;;;;;;;;10350848;28;20026;-85
2021/11/06 15:03:19;;;;;;;7.72;3.28;;;;;;;;;;10335465;28;20449;-82
2021/11/06 15:08:23;;;;;;;7.85;3.78;;;;;;;;;;10333809;28;20035;-82
2021/11/06 15:13:24;;;;;;;8.30;3.55;;;;;;;;;;10349717;28;20065;-79
2021/11/06 15:18:26;;;;;;;4.63;3.53;;;;;;;;;;10333599;28;20486;-82
2021/11/06 15:23:26;;;;;;;5.65;4.30;;;;;;;;;;10334702;28;20058;-82
2021/11/06 15:28:27;;;;;;;14.55;4.10;;;;;;;;;;10334233;28;20070;-82
2021/11/06 15:33:27;;;;;;;10.82;3.28;;;;;;;;;;10353065;28;20113;-82
2021/11/06 15:38:28;;;;;;;17.25;4.60;;;;;;;;;;10341859;28;20352;-82
2021/11/06 15:43:30;;;;;;;5.13;3.60;;;;;;;;;;10341464;28;20034;-81
2021/11/06 15:48:33;;;;;;;9.13;4.38;;;;;;;;;;10341534;28;20027;-81
2021/11/06 15:53:36;;;;;;;6.97;5.15;;;;;;;;;;10344052;28;20026;-81
2021/11/06 15:58:36;;;;;;;8.45;4.30;;;;;;;;;;10341454;28;20038;-83
2021/11/06 16:03:37;;;;;;;5.38;4.85;;;;;;;;;;10343606;28;20026;-83
2021/11/06 16:08:37;;;;;;;10.68;6.05;;;;;;;;;;10391317;28;20014;-82
2021/11/06 16:13:37;;;;;;;11.88;7.03;;;;;;;;;;10378912;28;20054;-83
2021/11/06 16:18:46;;;;;;;7.85;6.25;;;;;;;;;;10370860;28;20014;-83
2021/11/06 16:23:46;;;;;;;11.18;6.90;;;;;;;;;;10357066;28;20030;-83
2021/11/06 16:28:47;;;;;;;9.27;7.13;;;;;;;;;;10357495;28;20415;-83
2021/11/06 16:33:47;;;;;;;12.88;7.43;;;;;;;;;;10341085;28;20061;-83
2021/11/06 16:38:49;;;;;;;14.77;7.25;;;;;;;;;;10355493;28;20040;-83
2021/11/06 16:43:49;;;;;;;14.27;8.07;;;;;;;;;;10340600;28;20022;-83
2021/11/06 16:48:50;;;;;;;6.18;5.68;;;;;;;;;;10356131;28;20117;-84
2021/11/06 16:53:50;;;;;;;12.77;7.90;;;;;;;;;;10356120;28;20030;-84
2021/11/06 16:58:51;;;;;;;7.25;6.65;;;;;;;;;;10338067;28;20158;-83
2021/11/06 17:03:53;;;;;;;13.50;6.97;;;;;;;;;;10354802;28;20368;-83
2021/11/06 17:13:54;;;;;;;17.55;7.60;;;;;;;;;;10354553;28;20061;-83
2021/11/06 17:18:55;;;;;;;11.95;7.50;;;;;;;;;;10353962;28;20041;-82
2021/11/06 17:23:55;;;;;;;9.50;7.53;;;;;;;;;;10338039;28;20440;-83
2021/11/06 17:28:56;;;;;;;16.35;6.95;;;;;;;;;;10337348;28;20088;-83
2021/11/06 17:33:56;;;;;;;10.95;6.95;;;;;;;;;;10338408;28;20038;-83
2021/11/06 17:38:57;;;;;;;14.77;7.68;;;;;;;;;;10338504;28;20138;-83
2021/11/06 17:43:58;;;;;;;13.18;6.82;;;;;;;;;;10353044;28;20104;-82
2021/11/06 17:48:58;;;;;;;11.15;6.80;;;;;;;;;;10351869;28;20030;-83
2021/11/06 17:54:04;;;;;;;5.85;5.43;;;;;;;;;;10351981;28;20121;-84
2021/11/06 17:59:05;;;;;;;10.00;6.00;;;;;;;;;;10337380;28;20043;-82
2021/11/06 18:04:06;;;;;;;10.20;5.50;;;;;;;;;;10352796;28;20025;-83
2021/11/06 18:09:07;;;;;;;7.45;6.43;;;;;;;;;;10337017;28;20030;-83
2021/11/06 18:14:07;;;;;;;9.27;7.67;;;;;;;;;;10335982;28;20054;-82
2021/11/06 18:19:07;;;;;;;18.27;7.07;;;;;;;;;;10351775;28;20351;-82
2021/11/06 18:24:08;;;;;;;10.30;7.78;;;;;;;;;;10351382;28;20670;-83
2021/11/06 18:29:08;;;;;;;7.18;6.00;;;;;;;;;;10350605;28;20117;-83
2021/11/06 18:34:08;;;;;;;8.77;6.05;;;;;;;;;;10335701;28;20379;-83
2021/11/06 18:39:09;;;;;;;18.20;6.72;;;;;;;;;;10336297;28;20030;-83
2021/11/06 18:44:10;;;;;;;13.43;5.43;;;;;;;;;;10351533;28;20026;-82
2021/11/06 18:49:10;;;;;;;7.15;5.38;;;;;;;;;;10350444;28;20272;-84
2021/11/06 18:54:10;;;;;;;8.50;4.38;;;;;;;;;;10350023;28;20030;-83
2021/11/06 18:59:11;;;;;;;8.02;6.15;;;;;;;;;;10349916;28;20034;-83
2021/11/06 19:04:11;;;;;;;11.25;4.93;;;;;;;;;;10350324;28;20062;-82
2021/11/06 19:09:11;;;;;;;8.65;5.00;;;;;;;;;;10342592;28;20077;-83
2021/11/06 19:14:13;;;;;;;9.45;4.45;;;;;;;;;;10348118;28;20065;-83
2021/11/06 19:19:13;;;;;;;6.95;4.93;;;;;;;;;;10363080;28;20041;-83
2021/11/06 19:24:14;;;;;;;15.57;4.75;;;;;;;;;;10362286;28;20030;-82
2021/11/06 19:29:14;;;;;;;6.00;4.43;;;;;;;;;;10347539;28;20049;-83
2021/11/06 19:34:16;;;;;;;13.13;5.38;;;;;;;;;;10347371;28;20117;-83
2021/11/06 19:39:18;;;;;;;10.00;5.70;;;;;;;;;;10347188;28;20037;-83
2021/11/06 19:44:19;;;;;;;13.20;6.35;;;;;;;;;;10347179;28;20046;-83
2021/11/06 19:49:20;;;;;;;11.13;7.70;;;;;;;;;;10346536;28;20046;-83
2021/11/06 19:54:21;;;;;;;9.55;5.25;;;;;;;;;;10362370;28;20483;-83
2021/11/06 19:59:21;;;;;;;19.60;6.45;;;;;;;;;;10362259;28;20030;-82
2021/11/06 20:04:22;;;;;;;6.67;6.00;;;;;;;;;;10345857;28;20018;-83
2021/11/06 20:09:22;;;;;;;11.88;5.68;;;;;;;;;;10362064;28;20276;-83
2021/11/06 20:14:24;;;;;;;18.80;7.13;;;;;;;;;;10345583;28;20411;-83
2021/11/06 20:19:24;;;;;;;11.27;4.97;;;;;;;;;;10358053;28;20050;-83
2021/11/06 20:24:26;;;;;;;14.68;6.28;;;;;;;;;;10340094;28;20468;-82
2021/11/06 20:29:27;;;;;;;11.75;7.30;;;;;;;;;;10338720;28;20027;-81
2021/11/06 20:34:27;;;;;;;8.57;5.63;;;;;;;;;;10339189;28;20035;-81
2021/11/06 20:39:27;;;;;;;14.60;6.80;;;;;;;;;;10340149;28;20468;-84
2021/11/06 20:44:27;;;;;;;5.50;5.00;;;;;;;;;;10339452;28;20030;-83
2021/11/06 20:49:28;;;;;;;10.80;7.18;;;;;;;;;;10339344;28;20046;-82
2021/11/06 20:54:28;;;;;;;12.75;7.03;;;;;;;;;;10354801;28;20468;-81
2021/11/06 20:59:28;;;;;;;8.45;6.13;;;;;;;;;;10354657;28;20456;-82
2021/11/06 21:04:30;;;;;;;6.30;5.43;;;;;;;;;;10338109;28;20025;-81
2021/11/06 21:09:45;;;;;;;9.27;3.42;;;;;;;;;;10353522;28;20065;-81
2021/11/06 21:20:01;;;;;;;17.98;3.20;;;;;;;;;;10338154;28;20081;-80
2021/11/06 21:25:01;;;;;;;3.55;1.83;;;;;;;;;;10352437;28;20435;-81
2021/11/06 21:30:02;;;;;;;23.48;3.45;;;;;;;;;;10338139;28;20027;-81
2021/11/06 21:35:10;;;;;;;12.02;3.25;;;;;;;;;;10336611;28;20038;-81
2021/11/06 21:40:10;;;;;;;9.25;2.40;;;;;;;;;;10338929;28;20018;-80
2021/11/06 21:45:11;;;;;;;11.98;3.88;;;;;;;;;;10338674;28;20022;-80
2021/11/06 21:50:11;;;;;;;3.80;1.92;;;;;;;;;;10335512;28;20527;-79
2021/11/06 21:55:12;;;;;;;6.25;2.90;;;;;;;;;;10336701;28;20034;-80
2021/11/06 22:00:33;;;;;;;6.90;2.50;;;;;;;;;;10336625;28;20037;-80
2021/11/06 22:05:35;;;;;;;9.38;3.08;;;;;;;;;;10336062;28;20037;-81
2021/11/06 22:10:36;;;;;;;4.95;2.13;;;;;;;;;;10350932;28;20038;-80
2021/11/06 22:15:37;;;;;;;3.88;3.08;;;;;;;;;;10334273;28;20055;-81
2021/11/06 22:20:40;;;;;;;15.88;4.32;;;;;;;;;;10351512;28;20061;-81
2021/11/06 22:25:40;;;;;;;3.50;3.20;;;;;;;;;;10336213;28;20026;-81
2021/11/06 22:30:41;;;;;;;9.43;3.38;;;;;;;;;;10334422;28;20049;-81
2021/11/06 22:35:43;;;;;;;7.20;3.50;;;;;;;;;;10334821;28;20436;-81
2021/11/06 22:40:43;;;;;;;9.80;4.88;;;;;;;;;;10350993;28;20267;-80
2021/11/06 22:45:44;;;;;;;11.32;4.60;;;;;;;;;;10334493;28;20038;-79
2021/11/06 22:50:45;;;;;;;14.97;4.80;;;;;;;;;;10334981;28;20041;-80
2021/11/06 22:55:46;;;;;;;20.77;4.57;;;;;;;;;;10352620;28;20367;-79
2021/11/06 23:00:52;;;;;;;27.92;6.68;;;;;;;;;;10352591;28;20034;-77
2021/11/06 23:05:52;;;;;;;9.65;4.90;;;;;;;;;;10363964;28;20169;-78
2021/11/06 23:10:52;;;;;;;14.20;5.40;;;;;;;;;;10343090;28;20089;-81
2021/11/06 23:15:52;;;;;;;12.23;4.13;;;;;;;;;;10338325;28;20078;-80
2021/11/06 23:20:53;;;;;;;8.85;2.97;;;;;;;;;;10333423;28;20113;-80
2021/11/06 23:25:53;;;;;;;17.53;6.20;;;;;;;;;;10333934;28;20198;-80
2021/11/06 23:30:54;;;;;;;28.67;5.75;;;;;;;;;;10349961;28;20275;-79
2021/11/06 23:35:54;;;;;;;21.20;5.82;;;;;;;;;;10333686;28;20130;-80
2021/11/06 23:40:55;;;;;;;9.23;4.65;;;;;;;;;;10333264;28;20390;-79
2021/11/06 23:45:55;;;;;;;12.60;4.30;;;;;;;;;;10347618;28;20022;-80
2021/11/06 23:51:01;;;;;;;3.60;3.28;;;;;;;;;;10333393;28;20033;-80
